Time;durP1;ratioP1;P1;durP2;ratioP2;P2;SDS_P1;SDS_P2;PMS_P1;PMS_P2;Temp;Humidity;BMP_temperature;BMP_pressure;BME280_temperature;BME280_humidity;BME280_pressure;Samples;Min_cycle;Max_cycle;Signal;HPM_P1;HPM_P2
2023/12/17 00:01:57;;;;;;;2.67;1.48;;;9.70;96.70;;;;;;6244213;22;20066;-60
2023/12/17 00:04:27;;;;;;;2.40;1.58;;;9.70;96.70;;;;;;6243168;22;20107;-61
2023/12/17 00:06:58;;;;;;;3.25;1.35;;;9.70;96.70;;;;;;6244683;22;20439;-61
2023/12/17 00:09:26;;;;;;;2.92;1.40;;;9.80;96.70;;;;;;6219006;22;20016;-61
2023/12/17 00:11:58;;;;;;;2.47;1.65;;;9.80;96.70;;;;;;6270443;22;20019;-62
2023/12/17 00:14:27;;;;;;;3.15;1.80;;;9.80;96.70;;;;;;6243855;22;20026;-61
2023/12/17 00:16:55;;;;;;;3.53;1.40;;;9.80;96.70;;;;;;6269851;22;20019;-61
2023/12/17 00:19:24;;;;;;;2.25;1.20;;;9.80;96.70;;;;;;6270663;22;20016;-61
2023/12/17 00:21:55;;;;;;;1.92;1.45;;;9.80;96.70;;;;;;6244249;22;20015;-61
2023/12/17 00:24:23;;;;;;;2.50;1.38;;;9.80;96.70;;;;;;6270141;22;20073;-61
2023/12/17 00:26:54;;;;;;;4.25;1.65;;;9.80;96.70;;;;;;6270296;22;20039;-62
2023/12/17 00:29:23;;;;;;;2.28;1.45;;;9.80;96.70;;;;;;6271517;22;20016;-61
2023/12/17 00:31:55;;;;;;;3.80;1.58;;;9.80;96.70;;;;;;6272897;22;20042;-62
2023/12/17 00:34:28;;;;;;;3.03;1.77;;;9.80;96.70;;;;;;6222440;22;20035;-61
2023/12/17 00:36:59;;;;;;;2.78;1.40;;;9.80;96.70;;;;;;6273475;22;20361;-61
2023/12/17 00:39:28;;;;;;;2.55;1.30;;;9.70;96.70;;;;;;6272842;22;20461;-62
2023/12/17 00:41:57;;;;;;;5.05;1.55;;;9.70;96.70;;;;;;6272921;22;20087;-61
2023/12/17 00:44:28;;;;;;;3.40;1.67;;;9.70;96.70;;;;;;6220608;22;20019;-61
2023/12/17 00:47:00;;;;;;;4.45;1.40;;;9.60;96.70;;;;;;6272563;22;20020;-61
2023/12/17 00:49:31;;;;;;;3.35;1.55;;;9.60;96.70;;;;;;6246369;22;20049;-61
2023/12/17 00:52:02;;;;;;;2.45;1.63;;;9.60;96.70;;;;;;6272630;22;20023;-61
2023/12/17 00:54:30;;;;;;;4.13;1.45;;;9.60;96.70;;;;;;6272720;22;20099;-62
2023/12/17 00:56:58;;;;;;;2.67;1.48;;;9.60;96.70;;;;;;6273019;22;20331;-62
2023/12/17 00:59:27;;;;;;;2.78;1.40;;;9.60;96.70;;;;;;6195254;22;20020;-62
2023/12/17 01:01:57;;;;;;;2.60;1.73;;;9.60;96.70;;;;;;6272626;22;20016;-62
2023/12/17 01:04:25;;;;;;;3.15;1.58;;;9.60;96.70;;;;;;6245610;22;20470;-62
2023/12/17 01:06:55;;;;;;;2.75;1.55;;;9.60;96.70;;;;;;6272903;22;20508;-62
2023/12/17 01:09:26;;;;;;;2.35;1.52;;;9.60;96.70;;;;;;6273204;22;20073;-62
2023/12/17 01:11:57;;;;;;;2.70;1.60;;;9.60;96.70;;;;;;6273405;22;20024;-60
2023/12/17 01:14:25;;;;;;;2.25;1.50;;;9.60;96.70;;;;;;6272069;22;20047;-61
2023/12/17 01:16:56;;;;;;;3.25;1.48;;;9.50;96.70;;;;;;6272602;22;20031;-61
2023/12/17 01:19:24;;;;;;;2.75;1.70;;;9.50;96.70;;;;;;6246200;22;20058;-61
2023/12/17 01:21:57;;;;;;;2.55;1.40;;;9.50;96.70;;;;;;6245698;22;20114;-61
2023/12/17 01:24:28;;;;;;;4.32;1.45;;;9.50;96.70;;;;;;6272276;22;20019;-61
2023/12/17 01:26:56;;;;;;;1.83;1.30;;;9.50;96.70;;;;;;6245767;22;20019;-61
2023/12/17 01:29:25;;;;;;;2.60;1.25;;;9.50;96.70;;;;;;6272085;22;20062;-61
2023/12/17 01:31:54;;;;;;;3.45;1.45;;;9.50;96.70;;;;;;6271803;22;20558;-61
2023/12/17 01:34:25;;;;;;;2.08;1.23;;;9.50;96.70;;;;;;6272519;22;20026;-61
2023/12/17 01:36:56;;;;;;;4.15;1.30;;;9.50;96.70;;;;;;6245254;22;20385;-60
2023/12/17 01:39:27;;;;;;;4.43;1.75;;;9.50;96.70;;;;;;6245030;22;20417;-61
2023/12/17 01:41:57;;;;;;;2.60;1.30;;;9.50;96.70;;;;;;6272044;22;20016;-61
2023/12/17 01:44:26;;;;;;;2.45;1.23;;;9.40;96.70;;;;;;6271632;22;20595;-61
2023/12/17 01:46:54;;;;;;;2.63;1.20;;;9.40;96.70;;;;;;6244468;22;20024;-61
2023/12/17 01:49:24;;;;;;;1.67;0.95;;;9.40;96.70;;;;;;6272252;22;20019;-61
2023/12/17 01:51:53;;;;;;;1.20;1.00;;;9.40;96.70;;;;;;6245405;22;20058;-61
2023/12/17 01:54:22;;;;;;;1.60;1.10;;;9.40;96.70;;;;;;6219336;22;20031;-61
2023/12/17 01:56:54;;;;;;;0.90;0.70;;;9.40;96.70;;;;;;6274016;22;20031;-61
2023/12/17 01:59:24;;;;;;;3.28;1.38;;;9.50;96.70;;;;;;6302715;22;20023;-61
2023/12/17 02:01:53;;;;;;;1.17;0.82;;;9.50;96.70;;;;;;6274428;22;20077;-61
2023/12/17 02:04:22;;;;;;;2.15;1.20;;;9.50;96.70;;;;;;6300622;22;20735;-61
2023/12/17 02:06:55;;;;;;;2.22;1.10;;;9.50;96.70;;;;;;6302368;22;20022;-61
2023/12/17 02:09:23;;;;;;;2.28;1.10;;;9.50;96.70;;;;;;6274590;22;20027;-61
2023/12/17 02:11:56;;;;;;;2.47;1.15;;;9.50;96.70;;;;;;6275606;22;20057;-61
2023/12/17 02:14:25;;;;;;;1.92;0.85;;;9.50;96.70;;;;;;6302478;22;20026;-61
2023/12/17 02:16:55;;;;;;;2.30;1.10;;;9.50;96.70;;;;;;6301428;22;20038;-61
2023/12/17 02:19:23;;;;;;;4.72;1.20;;;9.50;96.70;;;;;;6275976;22;20046;-61
2023/12/17 02:21:53;;;;;;;2.08;0.93;;;9.50;96.70;;;;;;6303515;22;20023;-61
2023/12/17 02:24:23;;;;;;;2.63;1.00;;;9.50;96.70;;;;;;6303311;22;20512;-61
2023/12/17 02:26:53;;;;;;;1.65;0.88;;;9.50;96.70;;;;;;6274174;22;20529;-61
2023/12/17 02:29:21;;;;;;;1.08;0.88;;;9.60;96.70;;;;;;6274271;22;20457;-61
2023/12/17 02:31:50;;;;;;;2.70;1.13;;;9.60;96.70;;;;;;6300852;22;20358;-61
2023/12/17 02:34:20;;;;;;;4.20;1.13;;;9.60;96.70;;;;;;6302967;22;20019;-60
2023/12/17 02:36:49;;;;;;;3.08;1.08;;;9.60;96.70;;;;;;6302319;22;20023;-61
2023/12/17 02:39:18;;;;;;;1.60;1.10;;;9.50;96.70;;;;;;6275646;22;20023;-61
2023/12/17 02:41:49;;;;;;;1.52;0.98;;;9.50;96.70;;;;;;6302085;22;20015;-61
2023/12/17 02:44:19;;;;;;;2.30;1.00;;;9.50;96.70;;;;;;6275588;22;20023;-61
2023/12/17 02:46:48;;;;;;;1.10;0.90;;;9.40;96.70;;;;;;6250736;22;20023;-61
2023/12/17 02:49:17;;;;;;;2.10;0.93;;;9.40;96.70;;;;;;6303245;22;20076;-61
2023/12/17 02:51:50;;;;;;;1.25;0.80;;;9.50;96.70;;;;;;6301993;22;20011;-61
2023/12/17 02:54:20;;;;;;;2.42;1.33;;;9.50;96.70;;;;;;6295274;22;20145;-61
2023/12/17 02:56:52;;;;;;;2.35;1.17;;;9.50;96.70;;;;;;6239159;23;20048;-61
2023/12/17 02:59:21;;;;;;;2.20;1.25;;;9.40;96.70;;;;;;6241182;23;20094;-61
2023/12/17 03:01:53;;;;;;;1.63;0.90;;;9.40;96.70;;;;;;6240964;23;20012;-61
2023/12/17 03:04:23;;;;;;;1.52;0.98;;;9.40;96.70;;;;;;6239295;23;20063;-61
2023/12/17 03:06:52;;;;;;;1.50;0.98;;;9.40;96.70;;;;;;6241180;23;20099;-61
2023/12/17 03:09:23;;;;;;;2.63;0.90;;;9.40;96.70;;;;;;6241012;22;20058;-61
2023/12/17 03:11:54;;;;;;;1.88;1.17;;;9.40;96.70;;;;;;6239264;23;20027;-61
2023/12/17 03:14:25;;;;;;;1.50;0.80;;;9.40;96.70;;;;;;6239426;23;20039;-61
2023/12/17 03:16:54;;;;;;;1.85;0.90;;;9.30;96.70;;;;;;6238391;23;20024;-61
2023/12/17 03:19:23;;;;;;;1.63;0.88;;;9.30;96.70;;;;;;6239814;23;20102;-61
2023/12/17 03:21:53;;;;;;;2.13;1.00;;;9.20;96.70;;;;;;6241063;23;20024;-61
2023/12/17 03:24:24;;;;;;;1.90;1.20;;;9.20;96.70;;;;;;6239362;23;20020;-61
2023/12/17 03:26:57;;;;;;;2.45;1.13;;;9.20;96.70;;;;;;6241310;22;20103;-61
2023/12/17 03:29:26;;;;;;;1.58;0.90;;;9.20;96.70;;;;;;6239568;23;20029;-61
2023/12/17 03:31:57;;;;;;;1.98;1.02;;;9.20;96.70;;;;;;6238952;23;20013;-61
2023/12/17 03:34:27;;;;;;;1.77;1.10;;;9.20;96.70;;;;;;6240922;23;20024;-61
2023/12/17 03:36:57;;;;;;;1.90;1.08;;;9.20;96.70;;;;;;6241252;22;20020;-61
2023/12/17 03:39:28;;;;;;;1.90;0.90;;;9.20;96.70;;;;;;6239154;23;20024;-61
2023/12/17 03:42:02;;;;;;;1.85;1.13;;;9.20;96.70;;;;;;6239867;23;20025;-60
2023/12/17 03:44:35;;;;;;;1.52;1.02;;;9.20;96.70;;;;;;6239743;23;20020;-61
2023/12/17 03:47:04;;;;;;;1.77;1.08;;;9.10;96.70;;;;;;6241633;22;20020;-61
2023/12/17 03:49:35;;;;;;;2.38;1.02;;;9.10;96.70;;;;;;6241027;23;20024;-61
2023/12/17 03:52:06;;;;;;;3.83;1.20;;;9.20;96.70;;;;;;6239181;23;20527;-61
2023/12/17 03:54:35;;;;;;;2.45;1.30;;;9.20;96.70;;;;;;6241005;22;20044;-61
2023/12/17 03:57:07;;;;;;;2.65;1.45;;;9.20;96.70;;;;;;6240985;23;20024;-61
2023/12/17 04:00:03;;;;;;;1.63;0.98;;;9.20;96.70;;;;;;6206269;22;20546;-56
2023/12/17 04:02:32;;;;;;;1.58;1.08;;;9.10;96.70;;;;;;6270702;22;20341;-56
2023/12/17 04:05:05;;;;;;;2.13;1.35;;;9.10;96.70;;;;;;6274194;22;20015;-56
2023/12/17 04:07:34;;;;;;;1.88;1.10;;;9.00;96.70;;;;;;6276543;22;20472;-56
2023/12/17 04:10:05;;;;;;;1.55;1.10;;;9.00;96.70;;;;;;6274056;22;20096;-56
2023/12/17 04:12:37;;;;;;;2.47;1.40;;;9.00;96.70;;;;;;6273970;22;20019;-56
2023/12/17 04:15:07;;;;;;;2.30;1.30;;;8.80;96.70;;;;;;6273488;22;20075;-56
2023/12/17 04:17:36;;;;;;;2.83;1.40;;;8.80;96.70;;;;;;6271865;22;20034;-56
2023/12/17 04:20:08;;;;;;;2.38;1.33;;;8.80;96.70;;;;;;6273331;22;20028;-56
2023/12/17 04:22:38;;;;;;;3.08;1.40;;;8.80;96.70;;;;;;6270658;22;20081;-56
2023/12/17 04:25:10;;;;;;;2.65;1.58;;;8.70;96.70;;;;;;6273273;22;20069;-56
2023/12/17 04:27:41;;;;;;;1.83;1.20;;;8.80;96.70;;;;;;6273482;22;20023;-56
2023/12/17 04:30:11;;;;;;;1.58;0.90;;;8.80;96.70;;;;;;6272872;22;20019;-56
2023/12/17 04:32:41;;;;;;;1.98;1.25;;;8.80;96.70;;;;;;6272768;22;20015;-56
2023/12/17 04:35:11;;;;;;;1.88;1.10;;;8.80;96.70;;;;;;6273602;22;20030;-56
2023/12/17 04:37:41;;;;;;;2.85;1.10;;;8.70;96.70;;;;;;6271471;22;20019;-56
2023/12/17 04:40:11;;;;;;;0.90;0.80;;;8.80;96.70;;;;;;6273118;22;20442;-56
2023/12/17 04:42:41;;;;;;;1.35;0.70;;;8.80;96.70;;;;;;6273155;22;20012;-56
2023/12/17 04:45:11;;;;;;;2.05;0.75;;;8.90;96.70;;;;;;6272862;22;20073;-56
2023/12/17 04:47:40;;;;;;;1.70;0.85;;;8.90;96.70;;;;;;6272839;22;20030;-56
2023/12/17 04:50:12;;;;;;;1.33;0.50;;;8.90;96.70;;;;;;6272906;22;20019;-56
2023/12/17 04:52:41;;;;;;;1.25;0.70;;;9.00;96.70;;;;;;6271364;22;20024;-56
2023/12/17 04:55:10;;;;;;;2.15;0.80;;;9.00;96.70;;;;;;6273138;22;20070;-56
2023/12/17 04:57:41;;;;;;;1.30;0.70;;;9.00;96.70;;;;;;6271266;22;20030;-56
2023/12/17 05:00:11;;;;;;;2.50;0.88;;;9.00;96.70;;;;;;6272512;22;20405;-56
2023/12/17 05:02:41;;;;;;;1.38;0.70;;;9.00;96.70;;;;;;6272497;22;20019;-56
2023/12/17 05:05:10;;;;;;;2.35;0.85;;;9.00;96.70;;;;;;6273240;22;20023;-56
2023/12/17 05:07:39;;;;;;;1.27;0.65;;;9.00;96.70;;;;;;6272718;22;20508;-56
2023/12/17 05:10:09;;;;;;;2.05;0.70;;;9.00;96.70;;;;;;6272534;22;20480;-56
2023/12/17 05:12:40;;;;;;;2.47;0.80;;;9.00;96.70;;;;;;6272533;22;20038;-56
2023/12/17 05:15:10;;;;;;;2.38;1.10;;;8.90;96.70;;;;;;6271940;22;20441;-56
2023/12/17 05:17:39;;;;;;;1.50;1.05;;;8.80;96.70;;;;;;6272318;22;20028;-55
2023/12/17 05:20:09;;;;;;;1.50;1.05;;;8.60;96.70;;;;;;6272074;22;20034;-56
2023/12/17 05:22:38;;;;;;;1.58;0.90;;;8.40;96.70;;;;;;6272318;22;20085;-56
2023/12/17 05:25:08;;;;;;;2.20;1.30;;;8.40;96.70;;;;;;6273075;22;20023;-56
2023/12/17 05:27:42;;;;;;;1.67;0.93;;;8.30;96.70;;;;;;6272714;22;20054;-56
2023/12/17 05:30:12;;;;;;;1.85;0.73;;;8.40;96.70;;;;;;6271115;22;20035;-56
2023/12/17 05:32:41;;;;;;;1.40;1.00;;;8.40;96.70;;;;;;6272008;22;20015;-56
2023/12/17 05:35:11;;;;;;;1.75;1.02;;;8.50;96.70;;;;;;6272005;22;20022;-56
2023/12/17 05:37:41;;;;;;;3.90;1.20;;;8.60;96.70;;;;;;6272965;22;20026;-56
2023/12/17 05:40:12;;;;;;;5.25;2.20;;;8.70;96.70;;;;;;6270956;22;20023;-56
2023/12/17 05:42:44;;;;;;;2.65;1.13;;;8.80;96.70;;;;;;6272443;22;20020;-56
2023/12/17 05:45:14;;;;;;;2.70;1.25;;;8.80;96.70;;;;;;6272020;22;20037;-56
2023/12/17 05:47:43;;;;;;;3.05;1.88;;;8.80;96.70;;;;;;6272600;22;20023;-56
2023/12/17 05:50:13;;;;;;;2.63;1.40;;;8.80;96.70;;;;;;6272717;22;20023;-56
2023/12/17 05:52:43;;;;;;;0.95;0.70;;;8.90;96.70;;;;;;6270664;22;20019;-56
2023/12/17 05:55:13;;;;;;;1.20;0.90;;;8.80;96.70;;;;;;6272888;22;20453;-56
2023/12/17 05:57:44;;;;;;;2.50;1.20;;;8.80;96.70;;;;;;6272524;22;20019;-56
2023/12/17 06:00:14;;;;;;;2.60;1.00;;;8.70;96.70;;;;;;6270646;22;20027;-56
2023/12/17 06:02:43;;;;;;;2.67;0.90;;;8.70;96.70;;;;;;6272303;22;20111;-56
2023/12/17 06:05:12;;;;;;;1.50;0.75;;;8.90;96.70;;;;;;6272216;22;20024;-56
2023/12/17 06:07:42;;;;;;;1.05;0.60;;;9.00;96.70;;;;;;6272627;22;20086;-56
2023/12/17 06:10:11;;;;;;;1.13;0.60;;;9.00;96.70;;;;;;6272387;22;20039;-55
2023/12/17 06:12:40;;;;;;;1.88;0.70;;;9.10;96.70;;;;;;6272365;22;20022;-56
2023/12/17 06:15:11;;;;;;;1.63;0.52;;;9.20;96.70;;;;;;6271704;22;20089;-55
2023/12/17 06:17:42;;;;;;;1.08;0.57;;;9.30;96.70;;;;;;6272149;22;20739;-56
2023/12/17 06:20:12;;;;;;;1.38;0.60;;;9.20;96.70;;;;;;6272639;22;20039;-56
2023/12/17 06:22:42;;;;;;;1.33;0.63;;;9.30;96.70;;;;;;6272323;22;20089;-56
2023/12/17 06:25:11;;;;;;;1.77;0.70;;;9.30;96.70;;;;;;6272499;22;20024;-56
2023/12/17 06:27:40;;;;;;;1.45;0.70;;;9.20;96.70;;;;;;6272366;22;20046;-56
2023/12/17 06:30:16;;;;;;;2.67;0.60;;;9.10;96.70;;;;;;6271798;22;20020;-56
2023/12/17 06:32:45;;;;;;;0.63;0.43;;;9.10;96.70;;;;;;6270662;22;20039;-57
2023/12/17 06:35:14;;;;;;;1.25;0.60;;;9.10;96.70;;;;;;6272420;22;20074;-56
2023/12/17 06:37:43;;;;;;;1.67;0.80;;;9.10;96.70;;;;;;6272294;22;20058;-56
2023/12/17 06:40:14;;;;;;;1.83;0.80;;;9.10;96.70;;;;;;6272075;22;20070;-56
2023/12/17 06:42:43;;;;;;;0.77;0.45;;;9.10;96.70;;;;;;6272661;22;20015;-56
2023/12/17 06:45:12;;;;;;;3.05;0.80;;;9.30;96.70;;;;;;6271413;22;20024;-56
2023/12/17 06:47:44;;;;;;;1.35;0.60;;;9.30;96.70;;;;;;6271788;22;20019;-56
2023/12/17 06:50:15;;;;;;;1.05;0.60;;;9.40;96.70;;;;;;6270455;22;20366;-56
2023/12/17 06:52:44;;;;;;;0.95;0.50;;;9.40;96.70;;;;;;6271760;22;20024;-56
2023/12/17 06:55:12;;;;;;;0.85;0.50;;;9.40;96.70;;;;;;6272151;22;20023;-56
2023/12/17 06:57:47;;;;;;;2.28;0.75;;;9.40;96.70;;;;;;6271838;22;20031;-56
2023/12/17 07:00:18;;;;;;;4.15;2.10;;;9.40;96.70;;;;;;6271455;22;20048;-56
2023/12/17 07:02:48;;;;;;;2.45;1.58;;;9.50;96.70;;;;;;6271566;22;20500;-56
2023/12/17 07:05:17;;;;;;;2.13;0.90;;;9.60;96.70;;;;;;6271516;22;20028;-57
2023/12/17 07:07:48;;;;;;;1.60;0.98;;;9.70;96.70;;;;;;6271978;22;20019;-56
2023/12/17 07:10:18;;;;;;;2.35;0.70;;;9.60;96.70;;;;;;6271837;22;20016;-56
2023/12/17 07:12:47;;;;;;;1.83;0.82;;;9.70;96.70;;;;;;6271125;22;20090;-55
2023/12/17 07:15:16;;;;;;;2.20;0.60;;;9.70;96.70;;;;;;6271698;22;20023;-56
2023/12/17 07:17:45;;;;;;;1.55;0.47;;;9.60;96.70;;;;;;6271488;22;20019;-56
2023/12/17 07:20:16;;;;;;;1.52;0.60;;;9.70;96.70;;;;;;6270087;22;20457;-56
2023/12/17 07:22:47;;;;;;;4.47;1.42;;;9.70;96.70;;;;;;6271820;22;20039;-57
2023/12/17 07:25:17;;;;;;;1.23;0.90;;;9.60;96.70;;;;;;6271454;22;20107;-56
2023/12/17 07:27:47;;;;;;;3.28;1.27;;;9.60;96.70;;;;;;6271795;22;20026;-56
2023/12/17 07:30:21;;;;;;;2.50;1.30;;;9.40;96.70;;;;;;6271449;22;20412;-56
2023/12/17 07:32:51;;;;;;;2.15;1.45;;;9.10;96.70;;;;;;6269598;22;20019;-56
2023/12/17 07:35:22;;;;;;;2.42;1.23;;;8.80;96.70;;;;;;6269521;22;20074;-56
2023/12/17 07:37:53;;;;;;;2.47;1.70;;;8.70;96.70;;;;;;6271426;22;20445;-56
2023/12/17 07:40:23;;;;;;;4.20;1.48;;;8.50;96.70;;;;;;6270623;22;20098;-57
2023/12/17 07:42:52;;;;;;;3.25;1.95;;;8.40;96.70;;;;;;6269072;22;20026;-57
2023/12/17 07:45:21;;;;;;;5.53;1.88;;;8.40;96.70;;;;;;6270629;22;20039;-57
2023/12/17 07:47:50;;;;;;;2.95;1.75;;;8.40;96.70;;;;;;6271245;22;20079;-57
2023/12/17 07:50:22;;;;;;;2.78;1.52;;;8.40;96.70;;;;;;6269907;22;20019;-58
2023/12/17 07:52:51;;;;;;;4.05;1.55;;;8.50;96.70;;;;;;6269868;22;20022;-58
2023/12/17 07:55:20;;;;;;;8.02;3.88;;;8.60;96.70;;;;;;6271951;22;20016;-57
2023/12/17 07:57:49;;;;;;;5.68;3.03;;;8.60;96.70;;;;;;6271316;22;20087;-58
2023/12/17 08:00:18;;;;;;;3.03;1.98;;;8.60;96.70;;;;;;6269795;22;20027;-58
2023/12/17 08:02:47;;;;;;;2.90;1.65;;;8.50;96.70;;;;;;6270733;22;20023;-58
2023/12/17 08:05:18;;;;;;;4.55;2.00;;;8.50;96.70;;;;;;6271491;22;20357;-58
2023/12/17 08:07:49;;;;;;;3.30;1.90;;;8.60;96.70;;;;;;6271195;22;20020;-58
2023/12/17 08:10:18;;;;;;;3.72;1.55;;;8.60;96.70;;;;;;6271258;22;20668;-58
2023/12/17 08:12:48;;;;;;;2.60;1.55;;;8.70;96.70;;;;;;6271383;22;20862;-58
2023/12/17 08:15:17;;;;;;;4.07;1.98;;;8.80;96.70;;;;;;6271404;22;20345;-58
2023/12/17 08:17:46;;;;;;;3.13;1.90;;;8.80;96.70;;;;;;6271205;22;20031;-57
2023/12/17 08:20:17;;;;;;;3.28;1.73;;;8.90;96.70;;;;;;6270000;22;20388;-58
2023/12/17 08:22:48;;;;;;;4.45;1.70;;;9.00;96.70;;;;;;6271353;22;20057;-58
2023/12/17 08:25:17;;;;;;;7.15;3.25;;;9.00;96.70;;;;;;6271241;22;20527;-57
2023/12/17 08:27:46;;;;;;;4.82;3.25;;;9.00;96.70;;;;;;6270482;22;20038;-58
2023/12/17 08:30:15;;;;;;;3.95;2.30;;;9.00;96.70;;;;;;6271362;22;20095;-57
2023/12/17 08:32:45;;;;;;;3.65;2.25;;;9.00;96.70;;;;;;6270951;22;20080;-57
2023/12/17 08:35:14;;;;;;;3.80;2.15;;;9.00;96.70;;;;;;6268519;22;20020;-58
2023/12/17 08:37:44;;;;;;;3.75;2.08;;;9.10;96.70;;;;;;6270698;22;20470;-58
2023/12/17 08:40:15;;;;;;;4.55;2.15;;;9.20;96.70;;;;;;6269966;22;20050;-57
2023/12/17 08:42:46;;;;;;;4.00;2.38;;;9.30;96.70;;;;;;6271479;22;20035;-58
2023/12/17 08:45:17;;;;;;;3.63;2.30;;;9.40;96.70;;;;;;6270445;22;20044;-58
2023/12/17 08:47:46;;;;;;;3.85;2.35;;;9.50;96.70;;;;;;6271877;22;20050;-57
2023/12/17 08:50:15;;;;;;;3.72;2.55;;;9.60;96.70;;;;;;6271661;22;20024;-58
2023/12/17 08:52:44;;;;;;;5.85;2.42;;;9.70;96.70;;;;;;6273707;22;20022;-58
2023/12/17 08:55:16;;;;;;;4.18;2.22;;;9.80;96.70;;;;;;6273287;22;20077;-58
2023/12/17 08:57:45;;;;;;;4.55;2.72;;;9.90;96.70;;;;;;6271744;22;20091;-58
2023/12/17 09:00:18;;;;;;;4.75;2.78;;;10.00;96.70;;;;;;6271643;22;20667;-58
2023/12/17 09:02:48;;;;;;;4.43;2.72;;;10.10;96.70;;;;;;6271814;22;20026;-58
2023/12/17 09:05:17;;;;;;;3.95;2.20;;;10.20;96.70;;;;;;6270430;22;20019;-58
2023/12/17 09:07:50;;;;;;;4.63;1.98;;;10.20;96.70;;;;;;6272126;22;20024;-58
2023/12/17 09:10:23;;;;;;;6.07;3.15;;;10.30;96.70;;;;;;6271343;22;20354;-57
2023/12/17 09:12:54;;;;;;;3.90;2.70;;;10.40;96.70;;;;;;6270228;22;20069;-58
2023/12/17 09:15:25;;;;;;;2.88;2.03;;;10.40;96.70;;;;;;6272165;22;20039;-58
2023/12/17 09:17:54;;;;;;;4.43;2.67;;;10.40;96.70;;;;;;6271533;22;20046;-58
2023/12/17 09:20:23;;;;;;;4.70;2.40;;;10.40;96.70;;;;;;6272603;22;20096;-58
2023/12/17 09:22:52;;;;;;;4.78;2.65;;;10.50;96.70;;;;;;6272032;22;20665;-58
2023/12/17 09:25:23;;;;;;;5.28;2.60;;;10.60;96.70;;;;;;6270607;22;20026;-58
2023/12/17 09:27:52;;;;;;;5.13;2.45;;;10.70;96.70;;;;;;6245193;22;20383;-58
2023/12/17 09:30:21;;;;;;;3.40;2.67;;;10.70;96.70;;;;;;6272560;22;20464;-58
2023/12/17 09:32:51;;;;;;;5.25;3.05;;;10.80;96.70;;;;;;6271359;22;20107;-58
2023/12/17 09:35:20;;;;;;;6.97;3.40;;;10.90;96.70;;;;;;6271819;22;20029;-58
2023/12/17 09:37:53;;;;;;;7.22;3.45;;;10.90;96.70;;;;;;6271646;22;20027;-58
2023/12/17 09:40:24;;;;;;;6.93;3.20;;;10.80;96.70;;;;;;6272154;22;20034;-58
2023/12/17 09:42:59;;;;;;;8.73;3.75;;;10.90;96.70;;;;;;6272138;22;20073;-58
2023/12/17 09:45:27;;;;;;;6.18;3.60;;;11.00;96.70;;;;;;6272139;22;20073;-58
2023/12/17 09:47:56;;;;;;;6.82;3.15;;;11.10;96.70;;;;;;6271341;22;20060;-58
2023/12/17 09:50:27;;;;;;;5.53;2.42;;;11.10;96.70;;;;;;6271868;22;20334;-58
2023/12/17 09:52:56;;;;;;;5.07;2.90;;;11.30;96.70;;;;;;6271944;22;20019;-58
2023/12/17 09:55:28;;;;;;;6.63;3.42;;;11.40;96.70;;;;;;6272159;22;20113;-58
2023/12/17 09:58:02;;;;;;;4.78;2.30;;;11.50;96.70;;;;;;6271729;22;20046;-58
2023/12/17 10:00:32;;;;;;;4.95;2.70;;;11.50;96.70;;;;;;6271871;22;20067;-58
2023/12/17 10:03:04;;;;;;;3.58;2.15;;;11.50;96.70;;;;;;6271527;22;20066;-58
2023/12/17 10:05:34;;;;;;;5.72;2.22;;;11.60;96.70;;;;;;6272046;22;20081;-58
2023/12/17 10:08:03;;;;;;;4.47;2.03;;;11.80;96.70;;;;;;6270337;22;20027;-58
2023/12/17 10:10:34;;;;;;;2.53;1.38;;;11.90;96.70;;;;;;6271869;22;20094;-58
2023/12/17 10:13:04;;;;;;;3.65;1.73;;;11.90;96.70;;;;;;6271704;22;20015;-58
2023/12/17 10:15:37;;;;;;;3.17;1.98;;;12.00;96.70;;;;;;6271775;22;20114;-58
2023/12/17 10:18:07;;;;;;;2.83;1.65;;;12.10;96.70;;;;;;6271302;22;20102;-58
2023/12/17 10:20:36;;;;;;;4.65;1.70;;;12.20;96.70;;;;;;6271462;22;20093;-59
2023/12/17 10:23:06;;;;;;;4.68;1.73;;;12.30;96.70;;;;;;6271687;22;20659;-59
2023/12/17 10:25:36;;;;;;;8.32;3.97;;;12.40;96.70;;;;;;6271618;22;20026;-59
2023/12/17 10:28:08;;;;;;;5.13;2.22;;;12.50;96.70;;;;;;6270305;22;20019;-59
2023/12/17 10:30:41;;;;;;;5.70;2.67;;;12.50;96.70;;;;;;6270743;22;20031;-59
2023/12/17 10:33:20;;;;;;;3.85;1.70;;;12.60;96.70;;;;;;6269328;22;20458;-59
2023/12/17 10:35:50;;;;;;;2.42;1.20;;;12.70;96.70;;;;;;6266821;22;20020;-59
2023/12/17 10:38:19;;;;;;;2.38;1.40;;;12.70;96.70;;;;;;6271687;22;20027;-59
2023/12/17 10:40:50;;;;;;;2.38;1.27;;;12.80;96.70;;;;;;6271418;22;20024;-58
2023/12/17 10:43:21;;;;;;;4.45;1.42;;;12.90;96.70;;;;;;6269531;22;20026;-58
2023/12/17 10:45:51;;;;;;;2.75;0.95;;;13.00;96.70;;;;;;6270947;22;20032;-59
2023/12/17 10:48:21;;;;;;;25.33;18.30;;;13.10;96.70;;;;;;6271370;22;20023;-59
2023/12/17 10:50:51;;;;;;;3.47;2.33;;;13.10;96.70;;;;;;6269615;22;20412;-59
2023/12/17 10:53:20;;;;;;;3.67;1.50;;;13.20;96.70;;;;;;6271370;22;20036;-58
2023/12/17 10:55:51;;;;;;;4.38;1.95;;;13.30;96.70;;;;;;6269102;22;20034;-59
2023/12/17 10:58:22;;;;;;;5.85;4.63;;;13.30;96.70;;;;;;6269647;22;20024;-58
2023/12/17 11:00:53;;;;;;;3.13;1.60;;;13.40;96.70;;;;;;6270778;22;20032;-59
2023/12/17 11:03:25;;;;;;;2.67;1.60;;;13.40;96.70;;;;;;6271008;22;20061;-58
2023/12/17 11:05:57;;;;;;;4.75;2.90;;;13.50;96.70;;;;;;6269186;22;20348;-58
2023/12/17 11:08:26;;;;;;;3.50;2.47;;;13.50;96.70;;;;;;6269255;22;20024;-58
2023/12/17 11:11:00;;;;;;;5.03;2.63;;;13.60;96.70;;;;;;6271144;22;20019;-59
2023/12/17 11:13:30;;;;;;;3.65;2.47;;;13.60;96.70;;;;;;6270342;22;20048;-59
2023/12/17 11:16:19;;;;;;;5.22;3.05;;;13.70;96.70;;;;;;6269338;22;20027;-58
2023/12/17 11:18:49;;;;;;;3.70;2.40;;;13.80;96.70;;;;;;6270921;22;20540;-58
2023/12/17 11:21:22;;;;;;;4.72;2.08;;;13.90;96.70;;;;;;6270946;22;20051;-59
2023/12/17 11:23:54;;;;;;;1.92;1.15;;;13.90;96.70;;;;;;6271248;22;20016;-59
2023/12/17 11:26:25;;;;;;;6.65;3.92;;;14.00;96.70;;;;;;6270883;22;20020;-59
2023/12/17 11:28:55;;;;;;;3.30;1.60;;;14.20;96.70;;;;;;6269794;22;20030;-58
2023/12/17 11:31:24;;;;;;;3.17;2.25;;;14.30;96.70;;;;;;6269452;22;20093;-58
2023/12/17 11:33:54;;;;;;;4.43;1.55;;;14.40;96.70;;;;;;6269441;22;20017;-59
2023/12/17 11:36:26;;;;;;;1.48;1.00;;;14.40;96.70;;;;;;6270718;22;20098;-58
2023/12/17 11:38:57;;;;;;;2.08;1.17;;;14.50;96.70;;;;;;6271023;22;20020;-59
2023/12/17 11:41:28;;;;;;;3.72;1.33;;;14.60;96.70;;;;;;6269251;22;20071;-58
2023/12/17 11:43:58;;;;;;;2.05;1.35;;;14.80;96.70;;;;;;6270923;22;20066;-58
2023/12/17 11:46:28;;;;;;;1.83;1.17;;;14.80;96.70;;;;;;6270861;22;20600;-59
2023/12/17 11:48:57;;;;;;;2.25;0.93;;;14.90;96.70;;;;;;6271398;22;20023;-59
2023/12/17 11:51:25;;;;;;;1.80;0.90;;;14.90;96.70;;;;;;6271610;22;20082;-58
2023/12/17 11:53:55;;;;;;;2.33;0.77;;;15.00;96.70;;;;;;6270426;22;20042;-58
2023/12/17 11:56:31;;;;;;;1.00;0.70;;;15.00;96.70;;;;;;6272114;22;20387;-58
2023/12/17 11:59:00;;;;;;;1.30;0.90;;;15.00;96.70;;;;;;6271742;22;20664;-59
2023/12/17 12:01:29;;;;;;;2.47;1.20;;;15.20;96.70;;;;;;6269351;22;20023;-59
2023/12/17 12:03:59;;;;;;;3.55;1.30;;;15.40;96.70;;;;;;6270705;22;20107;-59
2023/12/17 12:06:30;;;;;;;2.05;1.00;;;15.40;96.70;;;;;;6269010;22;20058;-59
2023/12/17 12:08:59;;;;;;;1.75;0.98;;;15.40;96.70;;;;;;6271052;22;20043;-59
2023/12/17 12:11:36;;;;;;;2.67;0.95;;;15.40;96.70;;;;;;6270750;22;20529;-59
2023/12/17 12:14:06;;;;;;;2.40;1.20;;;15.50;96.70;;;;;;6271098;22;20039;-59
2023/12/17 12:16:44;;;;;;;5.80;5.05;;;15.40;96.70;;;;;;6270839;22;20042;-59
2023/12/17 12:19:12;;;;;;;2.72;1.70;;;15.50;96.70;;;;;;6271552;22;20328;-59
2023/12/17 12:21:53;;;;;;;3.95;1.00;;;15.50;96.70;;;;;;6270367;22;20362;-59
2023/12/17 12:24:24;;;;;;;1.90;1.23;;;15.70;96.70;;;;;;6271575;22;20089;-59
2023/12/17 12:26:54;;;;;;;1.88;1.00;;;15.60;96.70;;;;;;6271255;22;20465;-59
2023/12/17 12:29:23;;;;;;;2.08;0.90;;;15.60;96.70;;;;;;6272311;22;20361;-59
2023/12/17 12:31:53;;;;;;;1.70;1.27;;;15.70;96.70;;;;;;6245977;22;20140;-59
2023/12/17 12:34:34;;;;;;;1.40;0.77;;;15.80;96.70;;;;;;6271018;22;20030;-59
2023/12/17 12:37:04;;;;;;;2.20;1.50;;;15.80;96.70;;;;;;6272428;22;20023;-59
2023/12/17 12:39:44;;;;;;;2.22;1.17;;;15.90;96.70;;;;;;6272541;22;20026;-59
2023/12/17 12:42:31;;;;;;;1.58;0.73;;;16.00;96.70;;;;;;6272707;22;20079;-59
2023/12/17 12:45:00;;;;;;;0.88;0.70;;;15.90;96.70;;;;;;6271274;22;20054;-58
2023/12/17 12:47:29;;;;;;;1.20;0.90;;;15.90;96.70;;;;;;6272493;22;20027;-59
2023/12/17 12:49:58;;;;;;;2.00;1.13;;;16.00;96.70;;;;;;6273483;22;20024;-59
2023/12/17 12:52:30;;;;;;;1.35;0.93;;;16.10;96.70;;;;;;6272959;22;20073;-59
2023/12/17 12:55:01;;;;;;;1.65;1.20;;;16.10;96.70;;;;;;6272757;22;20069;-59
2023/12/17 12:57:31;;;;;;;2.55;1.80;;;16.30;96.70;;;;;;6273205;22;20469;-58
2023/12/17 13:00:04;;;;;;;2.15;1.60;;;16.30;96.70;;;;;;6271782;22;20028;-58
2023/12/17 13:02:32;;;;;;;3.30;1.67;;;16.40;96.70;;;;;;6272590;22;20466;-58
2023/12/17 13:05:01;;;;;;;3.08;1.60;;;16.40;96.70;;;;;;6272755;22;20015;-58
2023/12/17 13:07:31;;;;;;;2.60;1.30;;;16.40;96.70;;;;;;6273583;22;20504;-58
2023/12/17 13:10:01;;;;;;;1.90;1.20;;;16.40;96.70;;;;;;6271738;22;20527;-58